Princesa De Sesimbra — CURP3 — position and weather

sailwx.info

Track history (hours):
 
Tides and Currents Weather Stations Pressure Air Temp Water Temp Dewpoint Dewpoint Depression Visibility Wind Speed Wind Dir Waves Ship Positions

Princesa De Sesimbra

Last reported at 2018-Feb-20 21:11 UTC. Time now 2018-Feb-20 21:52 UTC.
Position N 38°26' W 009°07'.

Length 20 m.

Type: Fishing. MMSI: 263424640.

Date/timePositionNaut miles runAvg speedWind from/ knotsBaromVisibWave heightAir tempDewpointWater temp
2018-Feb-20 21:11N 38°26' W 009°07'0 0.0
2018-Feb-20 21:00N 38°26' W 009°07'0 0.0
2018-Feb-20 20:30N 38°26' W 009°07'0 0.0
2018-Feb-20 15:14N 38°26' W 009°07'0 0.3
2018-Feb-20 15:00N 38°26' W 009°07'0 0.0
2018-Feb-20 14:30N 38°26' W 009°07'0 0.0
2018-Feb-20 13:59N 38°26' W 009°07'0 0.0
2018-Feb-20 13:30N 38°26' W 009°07'3 6.4
2018-Feb-20 12:58N 38°25' W 009°10'4 8.8
2018-Feb-20 12:30N 38°26' W 009°15'8 9.8
2018-Feb-20 11:43N 38°32' W 009°21'2 9.8
2018-Feb-20 11:30N 38°34' W 009°22'5 9.6
2018-Feb-20 11:00N 38°38' W 009°25'3 7.0
2018-Feb-20 10:30N 38°41' W 009°28'0 0.4
2018-Feb-20 10:00N 38°41' W 009°28'0 0.5
2018-Feb-20 09:30N 38°41' W 009°29'0 0.3
2018-Feb-20 08:54N 38°41' W 009°29'0 0.1
2018-Feb-20 08:30N 38°41' W 009°29'0 0.1
2018-Feb-20 07:59N 38°41' W 009°29'1 2.0
2018-Feb-20 07:30N 38°41' W 009°28'2 4.7
2018-Feb-20 07:00N 38°40' W 009°25'1 2.2
2018-Feb-20 06:30N 38°41' W 009°23'0 0.4
2018-Feb-20 06:00N 38°41' W 009°24'0 0.4
2018-Feb-20 05:30N 38°41' W 009°24'11 1.2
2018-Feb-19 19:51N 38°33' W 009°14'1 3.3
2018-Feb-19 19:29N 38°32' W 009°15'4 8.2
2018-Feb-19 19:00N 38°28' W 009°14'5 5.9
2018-Feb-19 18:08N 38°25' W 009°09'110.0
2018-Feb-19 17:59N 38°26' W 009°07'0 0.1
2018-Feb-19 14:38N 38°26' W 009°07'0 0.1
2018-Feb-19 14:21N 38°26' W 009°07'0 0.1
2018-Feb-19 14:00N 38°26' W 009°07'0 0.0
2018-Feb-19 13:30N 38°26' W 009°07'0 0.0
2018-Feb-19 13:00N 38°26' W 009°07'0 0.6
2018-Feb-19 12:30N 38°26' W 009°07'5 9.8
2018-Feb-19 12:00N 38°24' W 009°12'5 9.6
2018-Feb-19 11:30N 38°28' W 009°17'5 9.8
2018-Feb-19 11:00N 38°32' W 009°21'5 9.8
2018-Feb-19 10:31N 38°35' W 009°24'5 9.6
2018-Feb-19 10:00N 38°40' W 009°27'0 0.9
2018-Feb-19 09:30N 38°40' W 009°28'0 0.4
2018-Feb-19 09:00N 38°40' W 009°27'0 0.3
2018-Feb-19 08:30N 38°40' W 009°27'0 0.1
2018-Feb-19 08:00N 38°40' W 009°27'0 0.2
2018-Feb-19 07:31N 38°41' W 009°27'2 4.9
2018-Feb-19 07:00N 38°39' W 009°25'1 1.8
2018-Feb-19 06:30N 38°39' W 009°25'2 5.0
2018-Feb-19 06:00N 38°40' W 009°27'0 0.3
2018-Feb-19 05:30N 38°40' W 009°27'0 0.3
2018-Feb-19 05:00N 38°41' W 009°27'0 0.3
2018-Feb-19 04:30N 38°41' W 009°27'0 0.3
2018-Feb-19 04:00N 38°41' W 009°27'0 0.2
2018-Feb-19 03:30N 38°41' W 009°27'0 0.2
2018-Feb-19 03:01N 38°41' W 009°26'1 1.9
2018-Feb-19 02:30N 38°40' W 009°27'0 0.9
2018-Feb-19 02:00N 38°40' W 009°27'0 0.3
2018-Feb-19 01:30N 38°40' W 009°27'2 4.9
2018-Feb-19 01:00N 38°39' W 009°24'1 1.2
2018-Feb-19 00:30N 38°38' W 009°24'1 2.1
2018-Feb-19 00:01N 38°39' W 009°23'3 5.0
2018-Feb-18 23:30N 38°38' W 009°20'4 7.1
2018-Feb-18 22:59N 38°35' W 009°17'510.2
2018-Feb-18 22:30N 38°30' W 009°15'510.1
2018-Feb-18 22:00N 38°25' W 009°14'5 8.9
2018-Feb-18 21:29N 38°25' W 009°08'1 2.5
2018-Feb-18 20:58N 38°26' W 009°07'  
2018-Feb-15 17:34N 38°26' W 009°07'0 0.0
2018-Feb-15 17:30N 38°26' W 009°07'0 0.0
2018-Feb-15 17:00N 38°26' W 009°07'0 0.0
2018-Feb-15 16:29N 38°26' W 009°07'0 0.0
2018-Feb-15 15:01N 38°26' W 009°07'0 0.0
2018-Feb-15 15:00N 38°26' W 009°07'0 0.1
2018-Feb-15 14:30N 38°26' W 009°07'0 0.1
2018-Feb-15 13:58N 38°26' W 009°07'0 0.0
2018-Feb-15 13:30N 38°26' W 009°07'0 0.0
2018-Feb-15 13:00N 38°26' W 009°07'0 0.0
2018-Feb-15 12:30N 38°26' W 009°07'4 8.8
2018-Feb-15 12:00N 38°24' W 009°02'5 9.4
2018-Feb-15 11:30N 38°21' W 008°57'5 9.2
2018-Feb-15 10:59N 38°18' W 008°52'4 9.1
2018-Feb-15 10:30N 38°16' W 008°47'0 0.5
2018-Feb-15 10:00N 38°16' W 008°47'0 0.5
2018-Feb-15 09:30N 38°16' W 008°48'0 0.4
2018-Feb-15 09:00N 38°16' W 008°48'0 0.1
2018-Feb-15 08:30N 38°16' W 008°48'0 0.2
2018-Feb-15 08:00N 38°16' W 008°47'0 0.4
2018-Feb-15 07:30N 38°16' W 008°48'1 1.2
2018-Feb-15 07:00N 38°15' W 008°47'4 6.3
2018-Feb-15 06:23N 38°18' W 008°50'3 0.9
2018-Feb-15 03:02N 38°21' W 008°51'0 0.0
2018-Feb-15 02:50N 38°21' W 008°51'0 0.0
2018-Feb-15 02:28N 38°21' W 008°51'0 0.0
2018-Feb-15 01:36N 38°21' W 008°51'0 0.0
2018-Feb-15 01:25N 38°21' W 008°51'2 0.6
2018-Feb-14 22:08N 38°20' W 008°48'0 0.4
2018-Feb-14 22:00N 38°20' W 008°48'0 0.2
2018-Feb-14 21:29N 38°20' W 008°48'0 0.2
2018-Feb-14 21:00N 38°20' W 008°48'3 5.1
2018-Feb-14 20:30N 38°17' W 008°47'2 4.6
2018-Feb-14 20:00N 38°15' W 008°47'3 6.9
2018-Feb-14 19:30N 38°18' W 008°49'5 9.5
2018-Feb-14 19:00N 38°22' W 008°53'510.4
2018-Feb-14 18:30N 38°24' W 008°59'510.3
2018-Feb-14 18:00N 38°26' W 009°05'1 2.7
2018-Feb-14 17:30N 38°26' W 009°07'0 0.0
2018-Feb-14 10:24N 38°26' W 009°07'0 0.3
2018-Feb-14 10:00N 38°26' W 009°07'0 0.0
2018-Feb-14 09:30N 38°26' W 009°07'0 0.0
2018-Feb-14 09:00N 38°26' W 009°07'0 0.0
2018-Feb-14 08:30N 38°26' W 009°07'0 0.0
2018-Feb-14 08:00N 38°26' W 009°07'0 0.3
2018-Feb-14 07:30N 38°26' W 009°07'9 1.2
2018-Feb-14 00:29N 38°33' W 009°14'0 0.0
2018-Feb-13 23:59N 38°33' W 009°14'0 0.1
2018-Feb-13 23:30N 38°33' W 009°14'9 4.7
2018-Feb-13 21:40N 38°26' W 009°07'0 1.2
2018-Feb-13 21:23N 38°26' W 009°07'0 0.0
2018-Feb-13 20:04N 38°26' W 009°07'0 0.0
2018-Feb-13 19:59N 38°26' W 009°07'0 0.0
2018-Feb-12 21:29N 38°26' W 009°07'0 0.0
2018-Feb-12 21:00N 38°26' W 009°07'0 0.0
2018-Feb-12 20:29N 38°26' W 009°07'0 0.0
2018-Feb-12 20:00N 38°26' W 009°07'0 0.0
2018-Feb-12 11:02N 38°26' W 009°07'0 0.0
2018-Feb-12 11:00N 38°26' W 009°07'0 0.0
2018-Feb-12 10:30N 38°26' W 009°07'0 0.0
2018-Feb-12 10:00N 38°26' W 009°07'0 0.0
2018-Feb-12 09:29N 38°26' W 009°07'0 0.0
2018-Feb-12 09:00N 38°26' W 009°07'0 0.0
2018-Feb-12 08:30N 38°26' W 009°07'0 0.0
2018-Feb-12 08:00N 38°26' W 009°07'0 0.0
2018-Feb-12 07:29N 38°26' W 009°07'0 0.0
2018-Feb-12 07:00N 38°26' W 009°07'3 5.9
2018-Feb-12 06:29N 38°24' W 009°08'13 1.8
2018-Feb-11 23:23N 38°34' W 009°17'410.2
2018-Feb-11 23:01N 38°31' W 009°16'510.0
2018-Feb-11 22:30N 38°26' W 009°14'4 7.6
2018-Feb-11 21:56N 38°25' W 009°08'2 3.1
2018-Feb-11 21:25N 38°26' W 009°07'0 0.0
2018-Feb-11 21:01N 38°26' W 009°07'  
Track history (hours):
 
Tides and Currents Weather Stations Pressure Air Temp Water Temp Dewpoint Dewpoint Depression Visibility Wind Speed Wind Dir Waves Ship Positions

Princesa De Sesimbra

Last reported at 2018-Feb-20 21:11 UTC. Time now 2018-Feb-20 21:52 UTC.
Position N 38°26' W 009°07'.

Length 20 m.

Type: Fishing. MMSI: 263424640.

Date/timePositionNaut miles runAvg speedWind from/ knotsBaromVisibWave heightAir tempDewpointWater temp
2018-Feb-20 21:11N 38°26' W 009°07'0 0.0
2018-Feb-20 21:00N 38°26' W 009°07'0 0.0
2018-Feb-20 20:30N 38°26' W 009°07'0 0.0
2018-Feb-20 15:14N 38°26' W 009°07'0 0.3
2018-Feb-20 15:00N 38°26' W 009°07'0 0.0
2018-Feb-20 14:30N 38°26' W 009°07'0 0.0
2018-Feb-20 13:59N 38°26' W 009°07'0 0.0
2018-Feb-20 13:30N 38°26' W 009°07'3 6.4
2018-Feb-20 12:58N 38°25' W 009°10'4 8.8
2018-Feb-20 12:30N 38°26' W 009°15'8 9.8
2018-Feb-20 11:43N 38°32' W 009°21'2 9.8
2018-Feb-20 11:30N 38°34' W 009°22'5 9.6
2018-Feb-20 11:00N 38°38' W 009°25'3 7.0
2018-Feb-20 10:30N 38°41' W 009°28'0 0.4
2018-Feb-20 10:00N 38°41' W 009°28'0 0.5
2018-Feb-20 09:30N 38°41' W 009°29'0 0.3
2018-Feb-20 08:54N 38°41' W 009°29'0 0.1
2018-Feb-20 08:30N 38°41' W 009°29'0 0.1
2018-Feb-20 07:59N 38°41' W 009°29'1 2.0
2018-Feb-20 07:30N 38°41' W 009°28'2 4.7
2018-Feb-20 07:00N 38°40' W 009°25'1 2.2
2018-Feb-20 06:30N 38°41' W 009°23'0 0.4
2018-Feb-20 06:00N 38°41' W 009°24'0 0.4
2018-Feb-20 05:30N 38°41' W 009°24'11 1.2
2018-Feb-19 19:51N 38°33' W 009°14'1 3.3
2018-Feb-19 19:29N 38°32' W 009°15'4 8.2
2018-Feb-19 19:00N 38°28' W 009°14'5 5.9
2018-Feb-19 18:08N 38°25' W 009°09'110.0
2018-Feb-19 17:59N 38°26' W 009°07'0 0.1
2018-Feb-19 14:38N 38°26' W 009°07'0 0.1
2018-Feb-19 14:21N 38°26' W 009°07'0 0.1
2018-Feb-19 14:00N 38°26' W 009°07'0 0.0
2018-Feb-19 13:30N 38°26' W 009°07'0 0.0
2018-Feb-19 13:00N 38°26' W 009°07'0 0.6
2018-Feb-19 12:30N 38°26' W 009°07'5 9.8
2018-Feb-19 12:00N 38°24' W 009°12'5 9.6
2018-Feb-19 11:30N 38°28' W 009°17'5 9.8
2018-Feb-19 11:00N 38°32' W 009°21'5 9.8
2018-Feb-19 10:31N 38°35' W 009°24'5 9.6
2018-Feb-19 10:00N 38°40' W 009°27'0 0.9
2018-Feb-19 09:30N 38°40' W 009°28'0 0.4
2018-Feb-19 09:00N 38°40' W 009°27'0 0.3
2018-Feb-19 08:30N 38°40' W 009°27'0 0.1
2018-Feb-19 08:00N 38°40' W 009°27'0 0.2
2018-Feb-19 07:31N 38°41' W 009°27'2 4.9
2018-Feb-19 07:00N 38°39' W 009°25'1 1.8
2018-Feb-19 06:30N 38°39' W 009°25'2 5.0
2018-Feb-19 06:00N 38°40' W 009°27'0 0.3
2018-Feb-19 05:30N 38°40' W 009°27'0 0.3
2018-Feb-19 05:00N 38°41' W 009°27'0 0.3
2018-Feb-19 04:30N 38°41' W 009°27'0 0.3
2018-Feb-19 04:00N 38°41' W 009°27'0 0.2
2018-Feb-19 03:30N 38°41' W 009°27'0 0.2
2018-Feb-19 03:01N 38°41' W 009°26'1 1.9
2018-Feb-19 02:30N 38°40' W 009°27'0 0.9
2018-Feb-19 02:00N 38°40' W 009°27'0 0.3
2018-Feb-19 01:30N 38°40' W 009°27'2 4.9
2018-Feb-19 01:00N 38°39' W 009°24'1 1.2
2018-Feb-19 00:30N 38°38' W 009°24'1 2.1
2018-Feb-19 00:01N 38°39' W 009°23'3 5.0
2018-Feb-18 23:30N 38°38' W 009°20'4 7.1
2018-Feb-18 22:59N 38°35' W 009°17'510.2
2018-Feb-18 22:30N 38°30' W 009°15'510.1
2018-Feb-18 22:00N 38°25' W 009°14'5 8.9
2018-Feb-18 21:29N 38°25' W 009°08'1 2.5
2018-Feb-18 20:58N 38°26' W 009°07'  
2018-Feb-15 17:34N 38°26' W 009°07'0 0.0
2018-Feb-15 17:30N 38°26' W 009°07'0 0.0
2018-Feb-15 17:00N 38°26' W 009°07'0 0.0
2018-Feb-15 16:29N 38°26' W 009°07'0 0.0
2018-Feb-15 15:01N 38°26' W 009°07'0 0.0
2018-Feb-15 15:00N 38°26' W 009°07'0 0.1
2018-Feb-15 14:30N 38°26' W 009°07'0 0.1
2018-Feb-15 13:58N 38°26' W 009°07'0 0.0
2018-Feb-15 13:30N 38°26' W 009°07'0 0.0
2018-Feb-15 13:00N 38°26' W 009°07'0 0.0
2018-Feb-15 12:30N 38°26' W 009°07'4 8.8
2018-Feb-15 12:00N 38°24' W 009°02'5 9.4
2018-Feb-15 11:30N 38°21' W 008°57'5 9.2
2018-Feb-15 10:59N 38°18' W 008°52'4 9.1
2018-Feb-15 10:30N 38°16' W 008°47'0 0.5
2018-Feb-15 10:00N 38°16' W 008°47'0 0.5
2018-Feb-15 09:30N 38°16' W 008°48'0 0.4
2018-Feb-15 09:00N 38°16' W 008°48'0 0.1
2018-Feb-15 08:30N 38°16' W 008°48'0 0.2
2018-Feb-15 08:00N 38°16' W 008°47'0 0.4
2018-Feb-15 07:30N 38°16' W 008°48'1 1.2
2018-Feb-15 07:00N 38°15' W 008°47'4 6.3
2018-Feb-15 06:23N 38°18' W 008°50'3 0.9
2018-Feb-15 03:02N 38°21' W 008°51'0 0.0
2018-Feb-15 02:50N 38°21' W 008°51'0 0.0
2018-Feb-15 02:28N 38°21' W 008°51'0 0.0
2018-Feb-15 01:36N 38°21' W 008°51'0 0.0
2018-Feb-15 01:25N 38°21' W 008°51'2 0.6
2018-Feb-14 22:08N 38°20' W 008°48'0 0.4
2018-Feb-14 22:00N 38°20' W 008°48'0 0.2
2018-Feb-14 21:29N 38°20' W 008°48'0 0.2
2018-Feb-14 21:00N 38°20' W 008°48'3 5.1
2018-Feb-14 20:30N 38°17' W 008°47'2 4.6
2018-Feb-14 20:00N 38°15' W 008°47'3 6.9
2018-Feb-14 19:30N 38°18' W 008°49'5 9.5
2018-Feb-14 19:00N 38°22' W 008°53'510.4
2018-Feb-14 18:30N 38°24' W 008°59'510.3
2018-Feb-14 18:00N 38°26' W 009°05'1 2.7
2018-Feb-14 17:30N 38°26' W 009°07'0 0.0
2018-Feb-14 10:24N 38°26' W 009°07'0 0.3
2018-Feb-14 10:00N 38°26' W 009°07'0 0.0
2018-Feb-14 09:30N 38°26' W 009°07'0 0.0
2018-Feb-14 09:00N 38°26' W 009°07'0 0.0
2018-Feb-14 08:30N 38°26' W 009°07'0 0.0
2018-Feb-14 08:00N 38°26' W 009°07'0 0.3
2018-Feb-14 07:30N 38°26' W 009°07'9 1.2
2018-Feb-14 00:29N 38°33' W 009°14'0 0.0
2018-Feb-13 23:59N 38°33' W 009°14'0 0.1
2018-Feb-13 23:30N 38°33' W 009°14'9 4.7
2018-Feb-13 21:40N 38°26' W 009°07'0 1.2
2018-Feb-13 21:23N 38°26' W 009°07'0 0.0
2018-Feb-13 20:04N 38°26' W 009°07'0 0.0
2018-Feb-13 19:59N 38°26' W 009°07'0 0.0
2018-Feb-12 21:29N 38°26' W 009°07'0 0.0
2018-Feb-12 21:00N 38°26' W 009°07'0 0.0
2018-Feb-12 20:29N 38°26' W 009°07'0 0.0
2018-Feb-12 20:00N 38°26' W 009°07'0 0.0
2018-Feb-12 11:02N 38°26' W 009°07'0 0.0
2018-Feb-12 11:00N 38°26' W 009°07'0 0.0
2018-Feb-12 10:30N 38°26' W 009°07'0 0.0
2018-Feb-12 10:00N 38°26' W 009°07'0 0.0
2018-Feb-12 09:29N 38°26' W 009°07'0 0.0
2018-Feb-12 09:00N 38°26' W 009°07'0 0.0
2018-Feb-12 08:30N 38°26' W 009°07'0 0.0
2018-Feb-12 08:00N 38°26' W 009°07'0 0.0
2018-Feb-12 07:29N 38°26' W 009°07'0 0.0
2018-Feb-12 07:00N 38°26' W 009°07'3 5.9
2018-Feb-12 06:29N 38°24' W 009°08'13 1.8
2018-Feb-11 23:23N 38°34' W 009°17'410.2
2018-Feb-11 23:01N 38°31' W 009°16'510.0
2018-Feb-11 22:30N 38°26' W 009°14'4 7.6
2018-Feb-11 21:56N 38°25' W 009°08'2 3.1
2018-Feb-11 21:25N 38°26' W 009°07'0 0.0
2018-Feb-11 21:01N 38°26' W 009°07'  

Dump ship's entire track history